DKH2204 ZUCK-VMMC
Flight info
| Callsign | DKH2204 |
|---|---|
| Flight time | N/A |
| Altitude | 33100 |
| Route | VILUS6Y VILUS V50 UGUGU W182 LAGEX G586 SJG B330 AVPAM A599 POU |
| Aircraft | A321/M-SDE3FGHIRWY/LB1 |
Departure
| Time | 2026-04-24 12:52 |
|---|---|
| Airport | Chongqing Jiangbei International Airport (ZUCK) |
Arrival
| Time | N/A |
|---|---|
| Airport | Macau International Airport (VMMC) |
| Time | Latitude | Longitude | Altitude | Speed | Heading |
|---|---|---|---|---|---|
| 2026-04-24 12:09 | 29.72899 | 106.65985 | 1374 ft | 0 kts | 231° |
| 2026-04-24 12:39 | 29.72909 | 106.65999 | 1374 ft | 2 kts | 231° |
| 2026-04-24 12:39 | 29.72918 | 106.66013 | 1374 ft | 2 kts | 231° |
| 2026-04-24 12:39 | 29.72928 | 106.66026 | 1374 ft | 2 kts | 231° |
| 2026-04-24 12:40 | 29.72937 | 106.66040 | 1374 ft | 2 kts | 231° |
| 2026-04-24 12:40 | 29.72947 | 106.66054 | 1374 ft | 2 kts | 252° |
| 2026-04-24 12:40 | 29.72948 | 106.66071 | 1374 ft | 2 kts | 281° |
| 2026-04-24 12:40 | 29.72942 | 106.66087 | 1374 ft | 2 kts | 311° |
| 2026-04-24 12:41 | 29.72937 | 106.66092 | 1374 ft | 1 kts | 325° |
| 2026-04-24 12:41 | 29.72934 | 106.66095 | 1374 ft | 0 kts | 321° |
| 2026-04-24 12:43 | 29.72936 | 106.66093 | 1374 ft | 1 kts | 321° |
| 2026-04-24 12:43 | 29.72948 | 106.66082 | 1374 ft | 3 kts | 323° |
| 2026-04-24 12:43 | 29.72974 | 106.66065 | 1374 ft | 5 kts | 336° |
| 2026-04-24 12:43 | 29.73018 | 106.66051 | 1374 ft | 7 kts | 356° |
| 2026-04-24 12:44 | 29.73076 | 106.66064 | 1374 ft | 9 kts | 16° |
| 2026-04-24 12:44 | 29.73136 | 106.66110 | 1374 ft | 11 kts | 53° |
| 2026-04-24 12:44 | 29.73168 | 106.66198 | 1375 ft | 12 kts | 74° |
| 2026-04-24 12:44 | 29.73192 | 106.66294 | 1375 ft | 12 kts | 75° |
| 2026-04-24 12:45 | 29.73204 | 106.66341 | 1375 ft | 5 kts | 64° |
| 2026-04-24 12:45 | 29.73229 | 106.66377 | 1375 ft | 6 kts | 58° |
| 2026-04-24 12:45 | 29.73231 | 106.66429 | 1375 ft | 7 kts | 105° |
| 2026-04-24 12:45 | 29.73217 | 106.66487 | 1375 ft | 8 kts | 106° |
| 2026-04-24 12:46 | 29.73222 | 106.66550 | 1375 ft | 8 kts | 51° |
| 2026-04-24 12:46 | 29.73279 | 106.66579 | 1375 ft | 9 kts | 17° |
| 2026-04-24 12:46 | 29.73345 | 106.66604 | 1375 ft | 10 kts | 18° |
| 2026-04-24 12:46 | 29.73420 | 106.66630 | 1375 ft | 11 kts | 17° |
| 2026-04-24 12:47 | 29.73503 | 106.66658 | 1375 ft | 13 kts | 17° |
| 2026-04-24 12:47 | 29.73595 | 106.66689 | 1375 ft | 14 kts | 17° |
| 2026-04-24 12:47 | 29.73696 | 106.66724 | 1375 ft | 15 kts | 17° |
| 2026-04-24 12:47 | 29.73803 | 106.66760 | 1375 ft | 16 kts | 17° |
| 2026-04-24 12:48 | 29.73916 | 106.66798 | 1375 ft | 17 kts | 17° |
| 2026-04-24 12:48 | 29.74033 | 106.66842 | 1376 ft | 17 kts | 18° |
| 2026-04-24 12:48 | 29.74154 | 106.66883 | 1376 ft | 18 kts | 16° |
| 2026-04-24 12:48 | 29.74277 | 106.66927 | 1376 ft | 18 kts | 17° |
| 2026-04-24 12:49 | 29.74398 | 106.66969 | 1376 ft | 18 kts | 17° |
| 2026-04-24 12:49 | 29.74518 | 106.67011 | 1376 ft | 17 kts | 17° |
| 2026-04-24 12:49 | 29.74635 | 106.67050 | 1376 ft | 15 kts | 17° |
| 2026-04-24 12:49 | 29.74710 | 106.67076 | 1376 ft | 7 kts | 17° |
| 2026-04-24 12:50 | 29.74740 | 106.67123 | 1376 ft | 8 kts | 91° |
| 2026-04-24 12:50 | 29.74724 | 106.67191 | 1376 ft | 9 kts | 108° |
| 2026-04-24 12:50 | 29.74704 | 106.67255 | 1376 ft | 7 kts | 123° |
| 2026-04-24 12:50 | 29.74662 | 106.67264 | 1376 ft | 0 kts | 198° |
| 2026-04-24 12:51 | 29.74661 | 106.67264 | 1376 ft | 1 kts | 198° |
| 2026-04-24 12:51 | 29.74415 | 106.67179 | 1376 ft | 75 kts | 197° |
| 2026-04-24 12:51 | 29.73680 | 106.66921 | 1376 ft | 142 kts | 197° |
| 2026-04-24 12:51 | 29.72603 | 106.66537 | 1627 ft | 171 kts | 197° |
| 2026-04-24 12:52 | 29.71455 | 106.66148 | 2243 ft | 175 kts | 197° |
| 2026-04-24 12:52 | 29.70259 | 106.65841 | 2888 ft | 180 kts | 186° |
| 2026-04-24 12:52 | 29.69026 | 106.65827 | 3440 ft | 176 kts | 175° |
| 2026-04-24 12:52 | 29.67781 | 106.65891 | 3770 ft | 184 kts | 179° |
| 2026-04-24 12:53 | 29.66456 | 106.65884 | 4031 ft | 197 kts | 180° |
| 2026-04-24 12:53 | 29.65022 | 106.65850 | 4283 ft | 213 kts | 181° |
| 2026-04-24 12:53 | 29.63493 | 106.65802 | 4575 ft | 229 kts | 181° |
| 2026-04-24 12:53 | 29.61828 | 106.65745 | 4796 ft | 250 kts | 181° |
| 2026-04-24 12:54 | 29.60017 | 106.65682 | 5146 ft | 268 kts | 181° |
| 2026-04-24 12:54 | 29.58101 | 106.65624 | 5654 ft | 278 kts | 178° |
| 2026-04-24 12:54 | 29.56201 | 106.65981 | 6330 ft | 280 kts | 161° |
| 2026-04-24 12:54 | 29.54445 | 106.66917 | 7035 ft | 282 kts | 150° |
| 2026-04-24 12:55 | 29.52715 | 106.68032 | 7700 ft | 286 kts | 149° |
| 2026-04-24 12:55 | 29.50991 | 106.69166 | 8366 ft | 290 kts | 149° |
| 2026-04-24 12:55 | 29.49239 | 106.70314 | 9020 ft | 295 kts | 148° |
| 2026-04-24 12:55 | 29.47428 | 106.71493 | 9693 ft | 298 kts | 149° |
| 2026-04-24 12:56 | 29.45616 | 106.72669 | 10314 ft | 303 kts | 149° |
| 2026-04-24 12:56 | 29.43742 | 106.73882 | 10686 ft | 318 kts | 149° |
| 2026-04-24 12:56 | 29.41772 | 106.75152 | 10980 ft | 334 kts | 149° |
| 2026-04-24 12:56 | 29.39685 | 106.76495 | 11267 ft | 350 kts | 149° |
| 2026-04-24 12:57 | 29.37511 | 106.77889 | 11671 ft | 361 kts | 149° |
| 2026-04-24 12:57 | 29.35307 | 106.79302 | 12222 ft | 366 kts | 150° |
| 2026-04-24 12:57 | 29.33096 | 106.80720 | 12790 ft | 370 kts | 150° |
| 2026-04-24 12:57 | 29.30822 | 106.82178 | 13328 ft | 376 kts | 150° |
| 2026-04-24 12:58 | 29.28511 | 106.83659 | 13855 ft | 381 kts | 150° |
| 2026-04-24 12:58 | 29.26187 | 106.85148 | 14386 ft | 386 kts | 150° |
| 2026-04-24 12:58 | 29.23846 | 106.86647 | 15061 ft | 385 kts | 150° |
| 2026-04-24 12:58 | 29.21512 | 106.88140 | 15639 ft | 388 kts | 150° |
| 2026-04-24 12:59 | 29.19135 | 106.89661 | 16113 ft | 394 kts | 150° |
| 2026-04-24 12:59 | 29.16742 | 106.91189 | 16562 ft | 400 kts | 151° |
| 2026-04-24 12:59 | 29.14271 | 106.92767 | 17033 ft | 405 kts | 151° |
| 2026-04-24 12:59 | 29.11796 | 106.94321 | 17450 ft | 411 kts | 155° |
| 2026-04-24 13:00 | 29.09090 | 106.95426 | 17849 ft | 415 kts | 170° |
| 2026-04-24 13:00 | 29.06243 | 106.95787 | 18318 ft | 412 kts | 183° |
| 2026-04-24 13:00 | 29.03341 | 106.95760 | 18834 ft | 413 kts | 186° |
| 2026-04-24 13:00 | 29.00462 | 106.95667 | 19331 ft | 416 kts | 186° |
| 2026-04-24 13:01 | 28.97565 | 106.95581 | 19803 ft | 420 kts | 186° |
| 2026-04-24 13:01 | 28.94651 | 106.95514 | 20267 ft | 423 kts | 186° |
| 2026-04-24 13:01 | 28.91692 | 106.95461 | 20730 ft | 426 kts | 186° |
| 2026-04-24 13:01 | 28.88672 | 106.95417 | 21192 ft | 429 kts | 186° |
| 2026-04-24 13:02 | 28.85697 | 106.95381 | 21650 ft | 431 kts | 186° |
| 2026-04-24 13:02 | 28.82689 | 106.95345 | 22078 ft | 434 kts | 186° |
| 2026-04-24 13:02 | 28.79669 | 106.95311 | 22559 ft | 435 kts | 186° |
| 2026-04-24 13:02 | 28.76626 | 106.95275 | 23008 ft | 437 kts | 186° |
| 2026-04-24 13:03 | 28.73578 | 106.95239 | 23418 ft | 440 kts | 186° |
| 2026-04-24 13:03 | 28.70527 | 106.95201 | 23809 ft | 443 kts | 186° |
| 2026-04-24 13:03 | 28.67422 | 106.95522 | 24164 ft | 455 kts | 169° |
| 2026-04-24 13:03 | 28.64507 | 106.96962 | 24518 ft | 465 kts | 148° |
| 2026-04-24 13:04 | 28.62015 | 106.99387 | 24962 ft | 466 kts | 136° |
| 2026-04-24 13:04 | 28.59695 | 107.02045 | 25324 ft | 470 kts | 134° |
| 2026-04-24 13:04 | 28.57389 | 107.04717 | 25643 ft | 474 kts | 134° |
| 2026-04-24 13:04 | 28.55004 | 107.07441 | 26010 ft | 477 kts | 135° |
| 2026-04-24 13:05 | 28.52578 | 107.10163 | 26360 ft | 480 kts | 136° |
| 2026-04-24 13:05 | 28.50159 | 107.12850 | 26668 ft | 483 kts | 136° |
| 2026-04-24 13:05 | 28.47692 | 107.15575 | 27016 ft | 486 kts | 137° |
| 2026-04-24 13:05 | 28.45220 | 107.18291 | 27338 ft | 489 kts | 136° |
| 2026-04-24 13:06 | 28.42758 | 107.21001 | 27635 ft | 492 kts | 137° |
| 2026-04-24 13:06 | 28.40264 | 107.23743 | 27952 ft | 495 kts | 137° |
| 2026-04-24 13:06 | 28.37754 | 107.26496 | 28257 ft | 498 kts | 137° |
| 2026-04-24 13:06 | 28.35187 | 107.29221 | 28541 ft | 500 kts | 140° |
| 2026-04-24 13:07 | 28.32513 | 107.31755 | 28816 ft | 503 kts | 143° |
| 2026-04-24 13:07 | 28.29787 | 107.34213 | 29097 ft | 505 kts | 144° |
| 2026-04-24 13:07 | 28.26970 | 107.36717 | 29364 ft | 508 kts | 144° |
| 2026-04-24 13:07 | 28.24187 | 107.39195 | 29683 ft | 510 kts | 144° |
| 2026-04-24 13:08 | 28.21382 | 107.41705 | 30094 ft | 509 kts | 144° |
| 2026-04-24 13:08 | 28.18620 | 107.44186 | 30535 ft | 508 kts | 144° |
| 2026-04-24 13:08 | 28.15883 | 107.46694 | 30957 ft | 506 kts | 143° |
| 2026-04-24 13:09 | 28.10418 | 107.51783 | 31739 ft | 505 kts | 143° |
| 2026-04-24 13:09 | 28.07717 | 107.54291 | 32037 ft | 506 kts | 143° |
| 2026-04-24 13:09 | 28.04985 | 107.56826 | 32300 ft | 508 kts | 144° |
| 2026-04-24 13:09 | 28.02245 | 107.59362 | 32564 ft | 510 kts | 144° |
| 2026-04-24 13:10 | 27.99495 | 107.61908 | 32845 ft | 511 kts | 144° |
| 2026-04-24 13:10 | 27.96728 | 107.64462 | 33128 ft | 513 kts | 144° |
| 2026-04-24 13:10 | 27.91214 | 107.69556 | 33225 ft | 513 kts | 145° |
| 2026-04-24 13:11 | 27.85619 | 107.74541 | 33227 ft | 510 kts | 149° |
| 2026-04-24 13:11 | 27.79603 | 107.78741 | 33227 ft | 503 kts | 158° |
| 2026-04-24 13:12 | 27.73302 | 107.81995 | 33235 ft | 498 kts | 164° |
| 2026-04-24 13:12 | 27.66854 | 107.85053 | 33234 ft | 499 kts | 163° |
| 2026-04-24 13:13 | 27.60488 | 107.88103 | 33227 ft | 498 kts | 163° |
| 2026-04-24 13:13 | 27.54112 | 107.91174 | 33228 ft | 498 kts | 163° |
| 2026-04-24 13:14 | 27.47760 | 107.94235 | 33232 ft | 497 kts | 163° |
| 2026-04-24 13:14 | 27.41403 | 107.97301 | 33237 ft | 495 kts | 163° |
| 2026-04-24 13:15 | 27.35046 | 108.00354 | 33243 ft | 497 kts | 163° |
| 2026-04-24 13:15 | 27.28640 | 108.03436 | 33248 ft | 495 kts | 163° |
| 2026-04-24 13:16 | 27.22240 | 108.06505 | 33246 ft | 495 kts | 163° |
| 2026-04-24 13:16 | 27.15806 | 108.09583 | 33249 ft | 496 kts | 163° |
| 2026-04-24 13:17 | 27.09347 | 108.12676 | 33242 ft | 493 kts | 163° |
| 2026-04-24 13:17 | 27.02924 | 108.15752 | 33240 ft | 491 kts | 163° |
| 2026-04-24 13:18 | 26.96583 | 108.18774 | 33230 ft | 492 kts | 163° |
| 2026-04-24 13:18 | 26.90278 | 108.21777 | 33224 ft | 493 kts | 163° |
| 2026-04-24 13:19 | 26.83964 | 108.24788 | 33219 ft | 493 kts | 163° |
| 2026-04-24 13:19 | 26.77615 | 108.27808 | 33221 ft | 493 kts | 163° |
| 2026-04-24 13:20 | 26.71296 | 108.30817 | 33203 ft | 490 kts | 163° |
| 2026-04-24 13:20 | 26.65068 | 108.34014 | 33218 ft | 499 kts | 154° |
| 2026-04-24 13:21 | 26.62244 | 108.36259 | 33216 ft | 506 kts | 143° |
| 2026-04-24 13:21 | 26.59748 | 108.39054 | 33227 ft | 509 kts | 132° |
| 2026-04-24 13:21 | 26.57699 | 108.42299 | 33223 ft | 511 kts | 120° |
| 2026-04-24 13:21 | 26.56180 | 108.45864 | 33229 ft | 510 kts | 109° |
| 2026-04-24 13:22 | 26.54332 | 108.53468 | 33217 ft | 509 kts | 101° |
| 2026-04-24 13:22 | 26.52688 | 108.61162 | 33210 ft | 509 kts | 102° |
| 2026-04-24 13:23 | 26.50938 | 108.68858 | 33203 ft | 511 kts | 103° |
| 2026-04-24 13:23 | 26.49118 | 108.76630 | 33203 ft | 511 kts | 103° |
| 2026-04-24 13:24 | 26.47312 | 108.84325 | 33216 ft | 510 kts | 103° |
| 2026-04-24 13:24 | 26.45515 | 108.91973 | 33211 ft | 511 kts | 103° |
| 2026-04-24 13:25 | 26.43015 | 108.99393 | 33205 ft | 512 kts | 118° |
| 2026-04-24 13:25 | 26.39006 | 109.05878 | 33203 ft | 508 kts | 135° |
| 2026-04-24 13:26 | 26.33823 | 109.11097 | 33203 ft | 502 kts | 146° |
| 2026-04-24 13:26 | 26.28322 | 109.15896 | 33202 ft | 502 kts | 146° |
| 2026-04-24 13:27 | 26.22802 | 109.20769 | 33207 ft | 501 kts | 146° |
| 2026-04-24 13:27 | 26.17372 | 109.25610 | 33210 ft | 503 kts | 146° |
| 2026-04-24 13:28 | 26.11934 | 109.30477 | 33196 ft | 501 kts | 146° |
| 2026-04-24 13:28 | 26.06502 | 109.35329 | 33200 ft | 501 kts | 146° |
| 2026-04-24 13:29 | 26.01084 | 109.40168 | 33196 ft | 500 kts | 146° |
| 2026-04-24 13:29 | 25.95659 | 109.44997 | 33193 ft | 500 kts | 146° |
| 2026-04-24 13:30 | 25.90232 | 109.49834 | 33189 ft | 498 kts | 146° |
| 2026-04-24 13:30 | 25.84764 | 109.54695 | 33186 ft | 499 kts | 146° |
| 2026-04-24 13:31 | 25.79296 | 109.59560 | 33182 ft | 496 kts | 145° |
| 2026-04-24 13:31 | 25.74111 | 109.64711 | 33183 ft | 498 kts | 140° |
| 2026-04-24 13:32 | 25.69101 | 109.70028 | 33180 ft | 497 kts | 140° |
| 2026-04-24 13:32 | 25.64012 | 109.75435 | 33189 ft | 497 kts | 141° |
| 2026-04-24 13:33 | 25.58981 | 109.80752 | 33198 ft | 497 kts | 140° |
| 2026-04-24 13:33 | 25.53956 | 109.86056 | 33197 ft | 496 kts | 141° |
| 2026-04-24 13:34 | 25.48964 | 109.91315 | 33196 ft | 495 kts | 141° |
| 2026-04-24 13:34 | 25.43981 | 109.96558 | 33189 ft | 495 kts | 141° |
| 2026-04-24 13:35 | 25.39002 | 110.01790 | 33176 ft | 494 kts | 141° |
| 2026-04-24 13:35 | 25.34039 | 110.07006 | 33164 ft | 492 kts | 141° |
| 2026-04-24 13:36 | 25.29086 | 110.12199 | 33157 ft | 492 kts | 141° |
| 2026-04-24 13:36 | 25.24122 | 110.17398 | 33153 ft | 492 kts | 141° |
| 2026-04-24 13:37 | 25.19172 | 110.22585 | 33156 ft | 491 kts | 141° |
| 2026-04-24 13:37 | 25.14236 | 110.27811 | 33155 ft | 490 kts | 141° |
| 2026-04-24 13:38 | 25.09339 | 110.32999 | 33157 ft | 490 kts | 141° |
| 2026-04-24 13:38 | 25.04423 | 110.38202 | 33163 ft | 488 kts | 141° |
| 2026-04-24 13:39 | 24.99515 | 110.43375 | 33168 ft | 489 kts | 141° |
| 2026-04-24 13:39 | 24.94612 | 110.48562 | 33165 ft | 487 kts | 141° |
| 2026-04-24 13:40 | 24.89718 | 110.53730 | 33172 ft | 488 kts | 141° |
| 2026-04-24 13:40 | 24.84823 | 110.58898 | 33167 ft | 489 kts | 141° |
| 2026-04-24 13:41 | 24.79915 | 110.64072 | 33174 ft | 488 kts | 141° |
| 2026-04-24 13:41 | 24.75023 | 110.69229 | 33157 ft | 487 kts | 142° |
| 2026-04-24 13:42 | 24.70143 | 110.74365 | 33149 ft | 487 kts | 142° |
| 2026-04-24 13:42 | 24.65256 | 110.79521 | 33159 ft | 486 kts | 142° |
| 2026-04-24 13:43 | 24.60413 | 110.84738 | 33156 ft | 488 kts | 142° |
| 2026-04-24 13:43 | 24.55585 | 110.89951 | 33181 ft | 487 kts | 142° |
| 2026-04-24 13:44 | 24.50743 | 110.95164 | 33140 ft | 487 kts | 142° |
| 2026-04-24 13:44 | 24.45934 | 111.00330 | 33162 ft | 487 kts | 142° |
| 2026-04-24 13:45 | 24.41103 | 111.05518 | 33156 ft | 486 kts | 143° |
| 2026-04-24 13:45 | 24.36247 | 111.10719 | 33152 ft | 485 kts | 143° |
| 2026-04-24 13:46 | 24.31401 | 111.15910 | 33155 ft | 486 kts | 143° |
| 2026-04-24 13:46 | 24.26513 | 111.21135 | 33143 ft | 485 kts | 144° |
| 2026-04-24 13:47 | 24.21407 | 111.25905 | 33143 ft | 473 kts | 152° |
| 2026-04-24 13:47 | 24.15827 | 111.29916 | 33169 ft | 465 kts | 159° |
| 2026-04-24 13:48 | 24.10062 | 111.33200 | 33151 ft | 459 kts | 163° |
| 2026-04-24 13:48 | 24.04269 | 111.36406 | 33149 ft | 458 kts | 163° |
| 2026-04-24 13:49 | 23.98537 | 111.39593 | 33150 ft | 459 kts | 162° |
| 2026-04-24 13:49 | 23.92850 | 111.42758 | 33147 ft | 459 kts | 162° |
| 2026-04-24 13:50 | 23.87090 | 111.45966 | 33144 ft | 460 kts | 162° |
| 2026-04-24 13:50 | 23.81314 | 111.49183 | 33139 ft | 460 kts | 162° |
| 2026-04-24 13:51 | 23.75603 | 111.52357 | 33143 ft | 461 kts | 162° |
| 2026-04-24 13:51 | 23.69889 | 111.55533 | 33144 ft | 459 kts | 162° |
| 2026-04-24 13:52 | 23.64182 | 111.58701 | 33145 ft | 459 kts | 162° |
| 2026-04-24 13:52 | 23.58496 | 111.61853 | 33149 ft | 461 kts | 162° |
| 2026-04-24 13:53 | 23.52763 | 111.65029 | 33153 ft | 461 kts | 162° |
| 2026-04-24 13:53 | 23.47059 | 111.68189 | 33151 ft | 461 kts | 162° |
| 2026-04-24 13:54 | 23.41509 | 111.71259 | 33151 ft | 460 kts | 162° |
| 2026-04-24 13:54 | 23.35765 | 111.74432 | 33162 ft | 461 kts | 162° |
| 2026-04-24 13:55 | 23.30031 | 111.77598 | 33167 ft | 462 kts | 162° |
| 2026-04-24 13:55 | 23.24645 | 111.81626 | 33160 ft | 481 kts | 145° |
| 2026-04-24 13:56 | 23.20474 | 111.87485 | 33172 ft | 499 kts | 124° |
| 2026-04-24 13:56 | 23.18129 | 111.94636 | 33187 ft | 510 kts | 107° |
| 2026-04-24 13:57 | 23.16667 | 112.02162 | 32924 ft | 510 kts | 105° |
| 2026-04-24 13:57 | 23.15935 | 112.05933 | 32438 ft | 507 kts | 105° |
| 2026-04-24 13:57 | 23.15193 | 112.09633 | 31871 ft | 506 kts | 105° |
| 2026-04-24 13:58 | 23.14422 | 112.13395 | 31230 ft | 506 kts | 105° |
| 2026-04-24 13:58 | 23.13652 | 112.17092 | 30558 ft | 507 kts | 105° |
| 2026-04-24 13:58 | 23.12872 | 112.20820 | 29861 ft | 508 kts | 106° |
| 2026-04-24 13:58 | 23.12137 | 112.24313 | 29177 ft | 509 kts | 106° |
| 2026-04-24 13:59 | 23.11318 | 112.28193 | 28481 ft | 507 kts | 105° |
| 2026-04-24 13:59 | 23.10537 | 112.31911 | 27990 ft | 500 kts | 105° |
| 2026-04-24 13:59 | 23.09773 | 112.35550 | 27513 ft | 494 kts | 105° |
| 2026-04-24 13:59 | 23.09020 | 112.39124 | 27052 ft | 488 kts | 105° |
| 2026-04-24 14:00 | 23.08263 | 112.42698 | 26577 ft | 482 kts | 105° |
| 2026-04-24 14:00 | 23.07535 | 112.46232 | 26107 ft | 476 kts | 103° |
| 2026-04-24 14:00 | 23.06988 | 112.49721 | 25673 ft | 470 kts | 99° |
| 2026-04-24 14:00 | 23.06647 | 112.53283 | 25194 ft | 466 kts | 95° |
| 2026-04-24 14:01 | 23.06411 | 112.56774 | 24725 ft | 461 kts | 95° |
| 2026-04-24 14:01 | 23.06193 | 112.60249 | 24263 ft | 456 kts | 95° |
| 2026-04-24 14:01 | 23.05981 | 112.63650 | 23814 ft | 452 kts | 95° |
| 2026-04-24 14:01 | 23.05758 | 112.67069 | 23360 ft | 447 kts | 95° |
| 2026-04-24 14:02 | 23.05537 | 112.70399 | 22908 ft | 443 kts | 95° |
| 2026-04-24 14:02 | 23.05312 | 112.73721 | 22455 ft | 439 kts | 95° |
| 2026-04-24 14:02 | 23.05090 | 112.77009 | 22009 ft | 435 kts | 95° |
| 2026-04-24 14:02 | 23.04868 | 112.80248 | 21548 ft | 432 kts | 94° |
| 2026-04-24 14:03 | 23.04647 | 112.83473 | 21090 ft | 429 kts | 95° |
| 2026-04-24 14:03 | 23.04425 | 112.86706 | 20629 ft | 426 kts | 94° |
| 2026-04-24 14:03 | 23.04205 | 112.89884 | 20172 ft | 424 kts | 94° |
| 2026-04-24 14:03 | 23.03985 | 112.93063 | 19703 ft | 422 kts | 94° |
| 2026-04-24 14:04 | 23.03768 | 112.96210 | 19243 ft | 420 kts | 94° |
| 2026-04-24 14:04 | 23.03550 | 112.99357 | 18784 ft | 418 kts | 94° |
| 2026-04-24 14:04 | 23.03329 | 113.02511 | 18316 ft | 416 kts | 94° |
| 2026-04-24 14:04 | 23.03111 | 113.05591 | 17862 ft | 414 kts | 93° |
| 2026-04-24 14:05 | 23.02893 | 113.08697 | 17403 ft | 412 kts | 93° |
| 2026-04-24 14:05 | 23.02675 | 113.11795 | 16942 ft | 410 kts | 93° |
| 2026-04-24 14:05 | 23.02458 | 113.14882 | 16493 ft | 408 kts | 93° |
| 2026-04-24 14:05 | 23.02131 | 113.17914 | 16037 ft | 406 kts | 101° |
| 2026-04-24 14:06 | 23.01318 | 113.20828 | 15593 ft | 403 kts | 112° |
| 2026-04-24 14:06 | 23.00115 | 113.23542 | 15163 ft | 398 kts | 117° |
| 2026-04-24 14:06 | 22.98836 | 113.26167 | 14707 ft | 387 kts | 118° |
| 2026-04-24 14:06 | 22.97590 | 113.28693 | 14267 ft | 376 kts | 117° |
| 2026-04-24 14:07 | 22.96372 | 113.31190 | 13834 ft | 366 kts | 117° |
| 2026-04-24 14:07 | 22.95218 | 113.33581 | 13414 ft | 358 kts | 116° |
| 2026-04-24 14:07 | 22.94082 | 113.35950 | 13000 ft | 351 kts | 116° |
| 2026-04-24 14:07 | 22.92964 | 113.38296 | 12588 ft | 348 kts | 116° |
| 2026-04-24 14:08 | 22.91860 | 113.40613 | 12170 ft | 346 kts | 116° |
| 2026-04-24 14:08 | 22.90758 | 113.42921 | 11750 ft | 345 kts | 117° |
| 2026-04-24 14:08 | 22.89654 | 113.45231 | 11335 ft | 343 kts | 117° |
| 2026-04-24 14:08 | 22.88362 | 113.47411 | 10873 ft | 342 kts | 134° |
| 2026-04-24 14:09 | 22.86403 | 113.48793 | 10616 ft | 328 kts | 161° |
| 2026-04-24 14:09 | 22.84248 | 113.49350 | 10637 ft | 309 kts | 171° |
| 2026-04-24 14:09 | 22.82169 | 113.49776 | 10659 ft | 305 kts | 171° |
| 2026-04-24 14:09 | 22.80056 | 113.50213 | 10687 ft | 305 kts | 171° |
| 2026-04-24 14:10 | 22.78686 | 113.50503 | 10699 ft | 305 kts | 171° |
| 2026-04-24 14:10 | 22.75870 | 113.51114 | 10730 ft | 307 kts | 170° |
| 2026-04-24 14:10 | 22.73792 | 113.51572 | 10757 ft | 307 kts | 170° |
| 2026-04-24 14:10 | 22.71693 | 113.52039 | 10775 ft | 307 kts | 170° |
| 2026-04-24 14:11 | 22.69584 | 113.52510 | 10777 ft | 307 kts | 170° |
| 2026-04-24 14:11 | 22.67486 | 113.52979 | 10785 ft | 307 kts | 170° |
| 2026-04-24 14:11 | 22.63281 | 113.53919 | 10786 ft | 307 kts | 170° |
| 2026-04-24 14:12 | 22.61185 | 113.54389 | 10786 ft | 307 kts | 170° |
| 2026-04-24 14:12 | 22.59105 | 113.54853 | 10787 ft | 307 kts | 170° |
| 2026-04-24 14:12 | 22.57017 | 113.55319 | 10785 ft | 307 kts | 170° |
| 2026-04-24 14:12 | 22.54925 | 113.55786 | 10787 ft | 307 kts | 170° |
| 2026-04-24 14:13 | 22.52826 | 113.56308 | 10786 ft | 308 kts | 167° |
| 2026-04-24 14:13 | 22.50759 | 113.56954 | 10783 ft | 307 kts | 165° |
| 2026-04-24 14:13 | 22.48701 | 113.57628 | 10775 ft | 308 kts | 165° |
| 2026-04-24 14:13 | 22.46630 | 113.58309 | 10583 ft | 310 kts | 165° |
| 2026-04-24 14:14 | 22.44581 | 113.58981 | 10356 ft | 302 kts | 165° |
| 2026-04-24 14:14 | 22.42591 | 113.59635 | 10201 ft | 293 kts | 165° |
| 2026-04-24 14:14 | 22.38751 | 113.60894 | 9827 ft | 286 kts | 165° |
| 2026-04-24 14:15 | 22.36850 | 113.61513 | 9466 ft | 286 kts | 165° |
| 2026-04-24 14:15 | 22.34942 | 113.62138 | 9117 ft | 286 kts | 165° |
| 2026-04-24 14:15 | 22.33035 | 113.62759 | 8772 ft | 285 kts | 165° |
| 2026-04-24 14:15 | 22.31127 | 113.63384 | 8450 ft | 282 kts | 165° |
| 2026-04-24 14:16 | 22.29250 | 113.63941 | 8186 ft | 276 kts | 173° |
| 2026-04-24 14:16 | 22.27381 | 113.64022 | 7944 ft | 266 kts | 188° |